Аэропорт: Ульяновск-Центральный. Ульяновск

ICAO: UWLL

METAR:
2013/07/19 07:30
UWLL 190730Z 30004MPS 260V350 CAVOK 24/06 Q1011 20000065 NOSIG RMK QFE748/0997
METAR:
2013/07/19 06:00
TAF UWLL 190455Z 1906/2006 30007MPS 9999 SCT033CB BKN100